Time;durP1;ratioP1;P1;durP2;ratioP2;P2;SDS_P1;SDS_P2;PMS_P1;PMS_P2;Temp;Humidity;BMP_temperature;BMP_pressure;BME280_temperature;BME280_humidity;BME280_pressure;Samples;Min_cycle;Max_cycle;Signal;HPM_P1;HPM_P2
2022/09/16 00:01:21;;;;;;;15.83;11.00;;;;;;;10.09;nan;96444.53;5007779;28;20201;-55
2022/09/16 00:03:54;;;;;;;13.87;10.50;;;;;;;10.00;nan;96424.53;4960851;28;20236;-57
2022/09/16 00:06:24;;;;;;;11.43;9.63;;;;;;;10.12;nan;96430.06;5008864;28;20414;-56
2022/09/16 00:08:55;;;;;;;11.83;10.70;;;;;;;10.14;nan;96430.69;5005490;28;20212;-56
2022/09/16 00:11:23;;;;;;;11.50;10.47;;;;;;;10.13;nan;96424.59;4988475;28;20385;-58
2022/09/16 00:14:47;;;;;;;10.97;10.07;;;;;;;10.17;nan;96432.13;4994986;28;20678;-57
2022/09/16 00:17:16;;;;;;;12.37;11.10;;;;;;;10.23;nan;96436.63;5005672;28;20219;-58
2022/09/16 00:19:46;;;;;;;14.30;11.07;;;;;;;10.28;nan;96431.53;4954863;28;20295;-55
2022/09/16 00:22:14;;;;;;;11.07;10.20;;;;;;;10.33;nan;96430.97;5003340;28;20836;-55
2022/09/16 00:24:42;;;;;;;12.40;11.07;;;;;;;10.34;nan;96430.75;5004034;28;20342;-54
2022/09/16 00:27:11;;;;;;;12.73;11.60;;;;;;;10.38;nan;96424.03;4983916;28;20817;-58
2022/09/16 00:29:39;;;;;;;11.47;10.47;;;;;;;10.36;nan;96426.06;5001720;28;20205;-59
2022/09/16 00:32:08;;;;;;;12.17;11.17;;;;;;;10.41;nan;96423.66;5006735;28;20232;-56
2022/09/16 00:34:36;;;;;;;13.47;10.17;;;;;;;10.41;nan;96423.66;4951079;28;20521;-60
2022/09/16 00:37:08;;;;;;;12.37;11.20;;;;;;;10.44;nan;96426.94;5005941;28;20580;-57
2022/09/16 00:39:37;;;;;;;12.00;10.83;;;;;;;10.38;nan;96407.34;4939981;28;20735;-57
2022/09/16 00:42:06;;;;;;;12.60;11.40;;;;;;;10.49;nan;96427.94;4993451;28;20426;-56
2022/09/16 00:44:56;;;;;;;11.80;10.70;;;;;;;10.53;nan;96434.47;5011122;28;20220;-56
2022/09/16 00:47:29;;;;;;;11.73;10.83;;;;;;;10.56;nan;96425.31;4991068;28;20505;-54
2022/09/16 00:50:01;;;;;;;18.27;10.57;;;;;;;10.56;nan;96422.66;5011358;28;20227;-59
2022/09/16 00:52:31;;;;;;;11.27;10.33;;;;;;;10.56;nan;96422.66;5015323;28;20232;-56
2022/09/16 00:55:04;;;;;;;11.70;10.60;;;;;;;10.60;nan;96425.69;4959594;28;20425;-58
2022/09/16 00:57:32;;;;;;;11.50;10.50;;;;;;;10.63;nan;96427.97;5011280;28;20208;-57
2022/09/16 01:00:02;;;;;;;12.33;11.17;;;;;;;10.63;nan;96433.28;5012466;28;21050;-56
2022/09/16 01:02:30;;;;;;;12.73;11.57;;;;;;;10.63;nan;96420.81;4991721;28;20251;-55
2022/09/16 01:05:01;;;;;;;11.27;10.17;;;;;;;10.62;nan;96424.50;5008850;28;20224;-59
2022/09/16 01:07:34;;;;;;;12.40;11.30;;;;;;;10.66;nan;96409.81;5013505;28;20204;-55
2022/09/16 01:10:03;;;;;;;12.23;11.13;;;;;;;10.64;nan;96414.50;4958746;28;20888;-54
2022/09/16 01:12:33;;;;;;;13.23;11.73;;;;;;;10.66;nan;96417.78;5010860;28;20227;-54
2022/09/16 01:15:03;;;;;;;12.87;11.77;;;;;;;10.65;nan;96421.44;5013066;28;20439;-59
2022/09/16 01:17:53;;;;;;;12.60;11.47;;;;;;;10.71;nan;96415.31;4990669;28;20219;-59
2022/09/16 01:20:54;;;;;;;13.40;12.13;;;;;;;10.70;nan;96410.25;5013799;28;20239;-57
2022/09/16 01:24:04;;;;;;;15.60;12.43;;;;;;;10.64;nan;96395.16;5014688;28;20436;-56
2022/09/16 01:27:08;;;;;;;12.33;11.37;;;;;;;10.76;nan;96419.19;5009308;28;20429;-56
2022/09/16 01:30:08;;;;;;;13.07;11.77;;;;;;;10.81;nan;96414.91;5010971;28;20208;-57
2022/09/16 01:32:46;;;;;;;13.47;11.83;;;;;;;10.86;nan;96424.91;4971753;28;20461;-56
2022/09/16 01:35:21;;;;;;;14.53;12.63;;;;;;;10.82;nan;96408.59;5013860;28;20208;-59
2022/09/16 01:37:56;;;;;;;12.83;11.70;;;;;;;10.88;nan;96411.44;5009261;28;20203;-59
2022/09/16 01:40:28;;;;;;;13.50;12.20;;;;;;;10.90;nan;96418.19;4956087;28;20222;-57
2022/09/16 01:43:02;;;;;;;13.00;11.67;;;;;;;10.97;nan;96421.66;5006949;28;20232;-61
2022/09/16 01:45:36;;;;;;;13.83;12.43;;;;;;;10.98;nan;96420.63;5013974;28;20232;-57
2022/09/16 01:48:10;;;;;;;14.87;13.33;;;;;;;11.04;nan;96415.50;4956884;28;20718;-54
2022/09/16 01:50:43;;;;;;;13.70;12.47;;;;;;;11.05;nan;96425.09;5009471;28;20409;-56
2022/09/16 01:53:15;;;;;;;13.40;12.27;;;;;;;11.05;nan;96411.84;5011735;28;20717;-59
2022/09/16 01:55:49;;;;;;;12.70;11.67;;;;;;;11.12;nan;96417.94;4936466;28;22386;-60
2022/09/16 01:58:21;;;;;;;12.67;11.57;;;;;;;11.15;nan;96415.72;5010357;28;20208;-56
2022/09/16 02:00:51;;;;;;;13.53;12.33;;;;;;;11.13;nan;96419.56;5013398;28;20450;-58
2022/09/16 02:03:24;;;;;;;14.47;11.93;;;;;;;11.15;nan;96430.78;4992201;28;20232;-58
2022/09/16 02:05:54;;;;;;;13.23;12.07;;;;;;;11.20;nan;96438.13;5010545;28;20251;-57
2022/09/16 02:08:27;;;;;;;13.50;12.20;;;;;;;11.15;nan;96431.63;5014502;28;20691;-57
2022/09/16 02:10:58;;;;;;;12.93;11.83;;;;;;;11.11;nan;96419.78;5011120;28;20220;-59
2022/09/16 02:13:31;;;;;;;12.17;11.07;;;;;;;11.08;nan;96414.06;4955444;28;20228;-55
2022/09/16 02:16:02;;;;;;;13.37;12.07;;;;;;;11.19;nan;96426.72;5015303;28;20231;-59
2022/09/16 02:18:34;;;;;;;13.20;11.90;;;;;;;11.17;nan;96420.78;4991372;28;20200;-55
2022/09/16 02:21:06;;;;;;;13.13;11.83;;;;;;;11.18;nan;96422.44;5013035;28;20598;-57
2022/09/16 02:23:38;;;;;;;13.63;11.83;;;;;;;11.19;nan;96418.78;5009683;28;20223;-59
2022/09/16 02:26:10;;;;;;;14.10;12.80;;;;;;;11.03;nan;96420.03;5007556;28;20243;-57
2022/09/16 02:28:40;;;;;;;13.10;12.03;;;;;;;11.00;nan;96413.28;4951893;28;20216;-57
2022/09/16 02:31:10;;;;;;;13.13;11.97;;;;;;;11.00;nan;96413.28;5009217;28;20451;-56
2022/09/16 02:33:43;;;;;;;12.97;11.87;;;;;;;10.94;nan;96406.16;5010998;28;20233;-55
2022/09/16 02:36:14;;;;;;;13.53;12.43;;;;;;;10.85;nan;96405.53;4988285;28;20400;-57
2022/09/16 02:38:46;;;;;;;13.17;11.87;;;;;;;10.67;nan;96384.97;5014462;28;20208;-55
2022/09/16 02:41:17;;;;;;;13.03;11.93;;;;;;;10.71;nan;96398.63;5009489;28;20488;-55
2022/09/16 02:43:46;;;;;;;13.47;12.37;;;;;;;10.73;nan;96406.34;4959039;28;20335;-59
2022/09/16 02:46:20;;;;;;;13.27;12.17;;;;;;;10.59;nan;96387.81;4949730;28;20224;-58
2022/09/16 02:48:56;;;;;;;14.30;12.87;;;;;;;10.75;nan;96399.84;5009263;28;20807;-56
2022/09/16 02:51:31;;;;;;;13.53;12.30;;;;;;;10.71;nan;96399.44;5003608;28;20212;-56
2022/09/16 02:54:03;;;;;;;14.77;13.37;;;;;;;10.73;nan;96403.72;5010727;28;20227;-54
2022/09/16 02:56:32;;;;;;;14.70;13.20;;;;;;;10.69;nan;96404.13;5006547;28;20399;-57
2022/09/16 02:59:01;;;;;;;15.00;13.07;;;;;;;10.74;nan;96414.13;5009806;28;20672;-55
2022/09/16 03:01:31;;;;;;;14.83;13.57;;;;;;;10.79;nan;96408.19;4954097;28;20713;-57
2022/09/16 03:04:01;;;;;;;17.43;15.80;;;;;;;10.78;nan;96411.84;5009119;28;20683;-59
2022/09/16 03:06:34;;;;;;;14.80;13.37;;;;;;;10.74;nan;96418.59;5007775;28;20873;-60
2022/09/16 03:09:06;;;;;;;15.97;14.00;;;;;;;10.67;nan;96410.66;5008327;28;20212;-60
2022/09/16 03:12:02;;;;;;;14.47;13.07;;;;;;;10.75;nan;96414.91;5009064;28;20219;-60
2022/09/16 03:14:58;;;;;;;15.20;13.80;;;;;;;10.70;nan;96413.69;4996432;28;20209;-58
2022/09/16 03:17:38;;;;;;;13.93;12.57;;;;;;;10.71;nan;96409.22;4951960;28;20506;-58
2022/09/16 03:20:13;;;;;;;14.53;13.03;;;;;;;10.75;nan;96402.50;5010990;28;20214;-57
2022/09/16 03:22:48;;;;;;;15.37;13.87;;;;;;;10.76;nan;96395.34;5000907;28;20235;-57
2022/09/16 03:25:29;;;;;;;15.00;13.57;;;;;;;10.78;nan;96401.25;5006481;28;20904;-55
2022/09/16 03:28:02;;;;;;;15.83;14.37;;;;;;;10.70;nan;96386.41;5010315;28;20583;-58
2022/09/16 03:30:33;;;;;;;16.23;14.53;;;;;;;10.83;nan;96401.47;5004734;28;20232;-54
2022/09/16 03:33:05;;;;;;;15.33;13.67;;;;;;;10.86;nan;96396.56;4953664;28;20467;-57
2022/09/16 03:35:40;;;;;;;15.20;13.80;;;;;;;10.86;nan;96393.13;5005228;28;20204;-57
2022/09/16 03:38:09;;;;;;;18.30;15.10;;;;;;;10.85;nan;96394.94;5010741;28;20206;-57
2022/09/16 03:40:38;;;;;;;15.23;13.83;;;;;;;10.83;nan;96398.84;5011245;28;20666;-57
2022/09/16 03:43:11;;;;;;;15.00;13.60;;;;;;;10.81;nan;96398.22;4981388;28;20651;-57
2022/09/16 03:45:41;;;;;;;15.30;13.90;;;;;;;10.82;nan;96394.56;5012844;28;20239;-59
2022/09/16 03:48:10;;;;;;;15.43;13.93;;;;;;;10.84;nan;96405.75;4955405;28;20725;-58
2022/09/16 03:50:40;;;;;;;15.43;13.90;;;;;;;10.85;nan;96400.25;4979212;28;20226;-60
2022/09/16 03:53:08;;;;;;;14.70;13.40;;;;;;;10.83;nan;96389.03;4980795;28;20802;-58
2022/09/16 03:55:37;;;;;;;15.83;14.33;;;;;;;10.86;nan;96395.78;5011890;28;20219;-60
2022/09/16 03:58:06;;;;;;;14.33;13.10;;;;;;;10.90;nan;96404.94;5009728;28;20212;-56
2022/09/16 04:00:35;;;;;;;16.37;14.73;;;;;;;10.92;nan;96408.19;4988062;28;20223;-56
2022/09/16 04:03:04;;;;;;;14.83;13.47;;;;;;;10.94;nan;96407.97;4956226;28;20639;-54
2022/09/16 04:05:32;;;;;;;15.10;13.70;;;;;;;10.92;nan;96410.84;5007822;28;20569;-53
2022/09/16 04:08:03;;;;;;;15.03;13.73;;;;;;;10.89;nan;96413.91;5010426;28;20208;-55
2022/09/16 04:10:33;;;;;;;16.13;14.73;;;;;;;10.84;nan;96395.97;5009431;28;20521;-54
2022/09/16 04:13:02;;;;;;;14.77;13.40;;;;;;;10.96;nan;96406.75;5009666;28;20230;-57
2022/09/16 04:15:30;;;;;;;17.27;15.03;;;;;;;10.98;nan;96409.19;4993542;28;20274;-53
2022/09/16 04:18:01;;;;;;;16.47;14.80;;;;;;;10.98;nan;96403.88;4967936;28;20219;-57
2022/09/16 04:20:30;;;;;;;16.13;14.43;;;;;;;10.92;nan;96405.53;4992811;28;20684;-60
2022/09/16 04:22:58;;;;;;;15.67;14.17;;;;;;;10.85;nan;96386.19;5000868;28;20238;-55
2022/09/16 04:25:29;;;;;;;17.23;14.30;;;;;;;11.03;nan;96408.59;5002086;28;20204;-55
2022/09/16 04:27:57;;;;;;;15.30;13.90;;;;;;;11.01;nan;96398.19;5008225;28;20223;-55
2022/09/16 04:30:26;;;;;;;16.63;14.93;;;;;;;10.94;nan;96400.03;5000540;28;20863;-57
2022/09/16 04:32:55;;;;;;;15.07;13.37;;;;;;;10.85;nan;96384.34;5003576;28;20262;-59
2022/09/16 04:35:24;;;;;;;15.63;14.07;;;;;;;10.97;nan;96397.78;4955752;28;20227;-56
2022/09/16 04:37:52;;;;;;;15.53;13.93;;;;;;;10.94;nan;96394.72;4990926;28;20624;-57
2022/09/16 04:40:21;;;;;;;14.57;12.93;;;;;;;10.96;nan;96390.84;5008295;28;20204;-59
2022/09/16 04:42:52;;;;;;;15.60;13.93;;;;;;;11.00;nan;96381.47;5010125;28;20236;-58
2022/09/16 04:45:20;;;;;;;16.17;14.67;;;;;;;10.93;nan;96380.66;5008965;28;20208;-55
2022/09/16 04:47:49;;;;;;;15.40;13.97;;;;;;;11.03;nan;96379.44;4997180;28;20460;-57
2022/09/16 04:50:17;;;;;;;15.53;14.10;;;;;;;10.98;nan;96391.47;4956450;28;20291;-57
2022/09/16 04:52:46;;;;;;;15.93;14.40;;;;;;;10.94;nan;96381.47;4955301;28;20231;-57
2022/09/16 04:55:14;;;;;;;16.10;14.67;;;;;;;10.91;nan;96388.00;5000331;28;20522;-58
2022/09/16 04:57:43;;;;;;;16.97;14.80;;;;;;;10.90;nan;96390.84;4998386;28;20918;-55
2022/09/16 05:00:14;;;;;;;14.90;13.50;;;;;;;10.89;nan;96395.34;5004256;28;20872;-56
2022/09/16 05:02:44;;;;;;;14.50;13.20;;;;;;;10.91;nan;96395.13;4985994;28;20724;-56
2022/09/16 05:05:12;;;;;;;15.20;13.80;;;;;;;10.96;nan;96406.75;5007662;28;20315;-58
2022/09/16 05:07:41;;;;;;;15.43;13.90;;;;;;;11.00;nan;96402.69;5006010;28;20230;-56
2022/09/16 05:10:09;;;;;;;16.20;14.60;;;;;;;10.98;nan;96396.78;4960081;28;20219;-59
2022/09/16 05:12:38;;;;;;;16.27;14.77;;;;;;;10.94;nan;96407.97;5004505;28;20255;-55
2022/09/16 05:15:08;;;;;;;15.23;13.93;;;;;;;10.94;nan;96408.81;5000575;28;20777;-56
2022/09/16 05:17:38;;;;;;;16.20;14.33;;;;;;;10.96;nan;96397.97;4964760;28;20208;-58
2022/09/16 05:20:18;;;;;;;16.20;14.70;;;;;;;10.89;nan;96405.13;4998903;28;20575;-58
2022/09/16 05:22:49;;;;;;;15.47;13.97;;;;;;;10.95;nan;96413.09;5005979;28;20224;-57
2022/09/16 05:25:18;;;;;;;16.17;14.53;;;;;;;10.94;nan;96407.97;4956325;28;20224;-58
2022/09/16 05:27:47;;;;;;;17.03;15.40;;;;;;;10.95;nan;96410.44;5007031;28;20224;-58
2022/09/16 05:30:16;;;;;;;17.37;15.67;;;;;;;10.93;nan;96412.47;5008846;28;20212;-55
2022/09/16 05:32:46;;;;;;;15.47;13.87;;;;;;;10.96;nan;96406.75;4993957;28;20443;-60
2022/09/16 05:35:14;;;;;;;16.10;14.60;;;;;;;10.91;nan;96400.44;5012880;28;20212;-58
2022/09/16 05:37:43;;;;;;;17.03;15.50;;;;;;;10.99;nan;96400.25;5001954;28;20220;-59
2022/09/16 05:40:11;;;;;;;17.60;15.80;;;;;;;11.03;nan;96388.22;4963972;28;20591;-55
2022/09/16 05:42:40;;;;;;;17.17;15.07;;;;;;;11.04;nan;96381.88;5006892;28;20228;-56
2022/09/16 05:45:09;;;;;;;17.40;15.57;;;;;;;11.05;nan;96385.34;5012010;28;20211;-56
2022/09/16 05:47:38;;;;;;;15.43;14.03;;;;;;;11.03;nan;96379.44;4990426;28;20231;-57
2022/09/16 05:50:08;;;;;;;15.13;13.60;;;;;;;11.07;nan;96393.91;5013390;28;20500;-60
2022/09/16 05:52:37;;;;;;;14.03;12.83;;;;;;;11.04;nan;96394.31;4992788;28;20437;-57
2022/09/16 05:55:06;;;;;;;12.90;11.90;;;;;;;10.98;nan;96398.59;4962799;28;20569;-53
2022/09/16 05:57:34;;;;;;;11.90;11.00;;;;;;;11.02;nan;96396.34;5005310;28;20204;-56
2022/09/16 06:00:03;;;;;;;11.80;10.77;;;;;;;11.09;nan;96379.44;5009618;28;20216;-53
2022/09/16 06:02:32;;;;;;;11.83;10.93;;;;;;;11.01;nan;96363.75;4988970;28;20312;-59
2022/09/16 06:05:01;;;;;;;12.97;11.77;;;;;;;11.14;nan;96402.66;5013408;28;20522;-56
2022/09/16 06:07:30;;;;;;;12.63;11.37;;;;;;;11.22;nan;96398.97;5010611;28;20349;-55
2022/09/16 06:10:00;;;;;;;12.97;11.53;;;;;;;11.33;nan;96394.88;5009198;28;20207;-56
2022/09/16 06:12:28;;;;;;;12.87;11.77;;;;;;;11.41;nan;96384.03;4955923;28;20239;-56
2022/09/16 06:14:57;;;;;;;13.57;12.47;;;;;;;11.40;nan;96401.78;5013198;28;20259;-56
2022/09/16 06:17:26;;;;;;;13.37;12.17;;;;;;;11.33;nan;96416.88;4988852;28;20621;-56
2022/09/16 06:19:54;;;;;;;13.27;11.97;;;;;;;11.42;nan;96426.28;5013185;28;20212;-58
2022/09/16 06:22:23;;;;;;;12.80;11.63;;;;;;;11.57;nan;96419.91;5005909;28;20201;-57
2022/09/16 06:24:52;;;;;;;12.90;11.80;;;;;;;11.71;nan;96423.31;5012024;28;20223;-56
2022/09/16 06:27:21;;;;;;;14.03;12.77;;;;;;;11.78;nan;96424.09;4959552;28;20624;-58
2022/09/16 06:29:50;;;;;;;13.80;12.40;;;;;;;11.86;nan;96418.56;5001049;28;20216;-58
2022/09/16 06:32:18;;;;;;;13.77;12.60;;;;;;;11.93;nan;96415.06;5012089;28;20716;-57
2022/09/16 06:34:47;;;;;;;14.17;12.80;;;;;;;11.84;nan;96414.50;4977448;28;20581;-56
2022/09/16 06:37:15;;;;;;;14.33;11.13;;;;;;;11.70;nan;96405.78;5008975;28;20219;-55
2022/09/16 06:39:44;;;;;;;12.00;10.90;;;;;;;11.65;nan;96394.97;5009884;28;20435;-57
2022/09/16 06:42:14;;;;;;;12.63;11.33;;;;;;;11.76;nan;96396.97;4963504;28;21053;-56
2022/09/16 06:44:42;;;;;;;12.07;11.07;;;;;;;11.93;nan;96401.78;5006056;28;20238;-56
2022/09/16 06:47:10;;;;;;;11.17;10.00;;;;;;;12.01;nan;96412.19;5010179;28;20215;-56
2022/09/16 06:49:39;;;;;;;11.00;10.10;;;;;;;12.03;nan;96410.16;4989663;28;20208;-55
2022/09/16 06:52:10;;;;;;;12.13;11.03;;;;;;;12.07;nan;96400.72;4993856;28;20215;-55
2022/09/16 06:54:38;;;;;;;11.40;10.30;;;;;;;12.25;nan;96405.31;5006916;28;20397;-54
2022/09/16 06:57:07;;;;;;;10.67;9.57;;;;;;;12.43;nan;96401.13;5007309;28;20208;-57
2022/09/16 06:59:41;;;;;;;10.83;9.83;;;;;;;12.48;nan;96388.00;4939900;28;20201;-57
2022/09/16 07:02:10;;;;;;;10.07;9.17;;;;;;;12.40;nan;96399.72;4988268;28;20217;-56
2022/09/16 07:04:39;;;;;;;12.03;9.80;;;;;;;12.45;nan;96397.22;5008588;28;20207;-57
2022/09/16 07:07:08;;;;;;;8.97;8.17;;;;;;;12.40;nan;96393.56;4990873;28;20719;-53
2022/09/16 07:09:37;;;;;;;9.93;8.90;;;;;;;12.21;nan;96392.69;5006181;28;20234;-56
2022/09/16 07:12:06;;;;;;;8.70;8.00;;;;;;;12.37;nan;96396.66;5006859;28;20544;-55
2022/09/16 07:14:35;;;;;;;9.47;8.67;;;;;;;12.16;nan;96383.50;4980030;28;20208;-55
2022/09/16 07:17:05;;;;;;;10.47;8.20;;;;;;;12.25;nan;96407.97;4998726;28;20205;-53
2022/09/16 07:19:33;;;;;;;9.87;8.40;;;;;;;12.23;nan;96403.91;5010994;28;20220;-53
2022/09/16 07:22:02;;;;;;;8.57;7.87;;;;;;;12.25;nan;96399.19;5006315;28;20204;-57
2022/09/16 07:24:31;;;;;;;9.13;8.43;;;;;;;12.30;nan;96413.47;4995862;28;20215;-54
2022/09/16 07:26:59;;;;;;;10.37;8.40;;;;;;;12.34;nan;96413.03;5007773;28;20212;-52
2022/09/16 07:29:28;;;;;;;11.90;8.53;;;;;;;12.35;nan;96402.22;4998670;28;20246;-53
2022/09/16 07:31:57;;;;;;;11.00;8.50;;;;;;;12.24;nan;96385.09;4981174;28;20321;-59
2022/09/16 07:34:26;;;;;;;8.63;7.73;;;;;;;12.53;nan;96388.19;5007609;28;21069;-54
2022/09/16 07:36:55;;;;;;;8.80;8.03;;;;;;;12.69;nan;96400.13;5003911;28;20205;-54
2022/09/16 07:39:26;;;;;;;9.50;8.43;;;;;;;12.90;nan;96405.28;4992572;28;20216;-55
2022/09/16 07:41:54;;;;;;;9.87;9.07;;;;;;;12.84;nan;96409.63;5007303;28;20589;-54
2022/09/16 07:44:23;;;;;;;9.50;8.53;;;;;;;12.77;nan;96403.53;5010027;28;20228;-52
2022/09/16 07:46:52;;;;;;;9.07;8.37;;;;;;;12.69;nan;96407.28;4967910;28;20220;-53
2022/09/16 07:49:20;;;;;;;8.33;7.53;;;;;;;12.53;nan;96409.44;5011200;28;20228;-57
2022/09/16 07:51:50;;;;;;;8.20;7.50;;;;;;;12.38;nan;96407.09;5001132;28;20209;-59
2022/09/16 07:54:20;;;;;;;9.10;8.40;;;;;;;12.49;nan;96410.88;4995025;28;20519;-56
2022/09/16 07:56:48;;;;;;;8.53;7.53;;;;;;;12.38;nan;96417.72;5007708;28;20220;-52
2022/09/16 07:59:18;;;;;;;9.27;8.30;;;;;;;12.37;nan;96418.75;5010749;28;20201;-53
2022/09/16 08:01:48;;;;;;;8.93;8.10;;;;;;;12.44;nan;96421.34;4954500;28;20212;-55
2022/09/16 08:04:17;;;;;;;8.67;7.97;;;;;;;12.40;nan;96410.34;5007880;28;20251;-58
2022/09/16 08:06:46;;;;;;;8.73;7.83;;;;;;;12.45;nan;96410.50;5006152;28;20844;-55
2022/09/16 08:09:16;;;;;;;7.83;7.13;;;;;;;12.64;nan;96407.91;4994010;28;20740;-59
2022/09/16 08:12:06;;;;;;;7.67;7.10;;;;;;;12.76;nan;96401.91;5007314;28;20208;-53
2022/09/16 08:14:35;;;;;;;9.83;7.90;;;;;;;12.85;nan;96406.72;4976930;28;20212;-55
2022/09/16 08:17:04;;;;;;;8.43;7.63;;;;;;;12.84;nan;96401.63;5002022;28;20680;-54
2022/09/16 08:19:32;;;;;;;8.50;7.67;;;;;;;12.92;nan;96413.84;5008193;28;20210;-56
2022/09/16 08:22:01;;;;;;;14.30;8.03;;;;;;;13.11;nan;96399.53;5001667;28;20711;-58
2022/09/16 08:24:31;;;;;;;8.10;7.40;;;;;;;13.21;nan;96382.25;5007034;28;20235;-55
2022/09/16 08:26:59;;;;;;;9.90;7.90;;;;;;;13.46;nan;96408.88;4994729;28;20204;-58
2022/09/16 08:29:28;;;;;;;7.73;7.13;;;;;;;13.51;nan;96403.69;5011579;28;20232;-52
2022/09/16 08:31:56;;;;;;;7.67;7.07;;;;;;;13.71;nan;96407.94;4960783;28;20785;-51
2022/09/16 08:34:25;;;;;;;7.97;7.23;;;;;;;13.64;nan;96408.03;5007434;28;20282;-52
2022/09/16 08:36:54;;;;;;;7.43;6.77;;;;;;;13.63;nan;96402.94;5004318;28;20246;-52
2022/09/16 08:39:22;;;;;;;7.37;6.77;;;;;;;13.92;nan;96397.88;5008755;28;20211;-55
2022/09/16 08:42:10;;;;;;;6.57;5.97;;;;;;;13.87;nan;96391.38;4988854;28;20424;-54
2022/09/16 08:44:43;;;;;;;7.03;6.37;;;;;;;13.77;nan;96403.59;5005109;28;20212;-51
2022/09/16 08:47:21;;;;;;;7.07;6.63;;;;;;;13.66;nan;96403.31;4963051;28;20512;-52
2022/09/16 08:49:51;;;;;;;7.30;6.80;;;;;;;13.69;nan;96408.19;5003417;28;20794;-55
2022/09/16 08:52:28;;;;;;;6.60;6.10;;;;;;;13.78;nan;96413.19;5006539;28;20291;-52
2022/09/16 08:54:59;;;;;;;6.10;5.47;;;;;;;13.49;nan;96399.59;5005409;28;20854;-52
2022/09/16 08:57:31;;;;;;;7.23;5.73;;;;;;;13.61;nan;96419.09;4999894;28;20212;-58
2022/09/16 09:00:04;;;;;;;5.20;4.70;;;;;;;13.45;nan;96415.22;5000357;28;20234;-51
2022/09/16 09:02:39;;;;;;;5.67;5.20;;;;;;;13.43;nan;96410.09;4958275;28;20396;-56
2022/09/16 09:05:17;;;;;;;6.60;5.23;;;;;;;13.29;nan;96389.97;5008023;28;20254;-53
2022/09/16 09:08:15;;;;;;;5.03;4.30;;;;;;;13.51;nan;96409.00;4940374;28;20208;-58
2022/09/16 09:10:50;;;;;;;5.80;5.40;;;;;;;13.52;nan;96402.66;4961877;28;20212;-54
2022/09/16 09:13:35;;;;;;;5.67;5.13;;;;;;;13.69;nan;96404.69;5011898;28;20548;-54
2022/09/16 09:16:12;;;;;;;5.10;4.60;;;;;;;13.31;nan;96410.00;4994488;28;20216;-57
2022/09/16 09:18:45;;;;;;;4.57;4.20;;;;;;;13.41;nan;96413.97;5011423;28;20204;-55
2022/09/16 09:21:22;;;;;;;4.23;3.87;;;;;;;13.53;nan;96406.94;5011872;28;20219;-52
2022/09/16 09:24:10;;;;;;;6.40;4.30;;;;;;;13.51;nan;96414.31;4964388;28;20654;-58
2022/09/16 09:26:44;;;;;;;4.43;4.10;;;;;;;13.15;nan;96407.91;5008293;28;20246;-51
2022/09/16 09:29:41;;;;;;;4.47;4.07;;;;;;;13.50;nan;96394.06;5000437;28;20466;-53
2022/09/16 09:32:18;;;;;;;5.17;4.77;;;;;;;13.67;nan;96406.78;4983275;28;20270;-55
2022/09/16 09:35:07;;;;;;;4.60;4.17;;;;;;;13.43;nan;96401.28;5013901;28;20212;-53
2022/09/16 09:37:48;;;;;;;4.23;3.83;;;;;;;13.32;nan;96400.97;5004753;28;20204;-57
2022/09/16 09:40:20;;;;;;;3.80;3.47;;;;;;;13.23;nan;96409.44;4963687;28;20213;-54
2022/09/16 09:42:52;;;;;;;8.23;3.90;;;;;;;12.86;nan;96407.53;5013230;28;20236;-56
2022/09/16 09:45:26;;;;;;;4.83;4.33;;;;;;;13.00;nan;96406.38;4997951;28;20220;-56
2022/09/16 09:47:58;;;;;;;5.87;4.47;;;;;;;12.86;nan;96402.22;4994493;28;20216;-57
2022/09/16 09:50:29;;;;;;;5.20;3.77;;;;;;;12.78;nan;96399.84;5007784;28;20580;-53
2022/09/16 09:53:12;;;;;;;5.03;4.10;;;;;;;12.90;nan;96394.66;5012299;28;20224;-52
2022/09/16 09:55:42;;;;;;;4.27;3.97;;;;;;;12.97;nan;96385.56;4963608;28;20424;-55
2022/09/16 09:58:21;;;;;;;4.10;3.80;;;;;;;12.94;nan;96396.63;5009039;28;20204;-52
2022/09/16 10:00:54;;;;;;;4.37;4.07;;;;;;;12.96;nan;96381.28;4994711;28;20211;-52
2022/09/16 10:03:24;;;;;;;5.53;3.90;;;;;;;13.07;nan;96354.97;4992751;28;20228;-53
2022/09/16 10:05:52;;;;;;;5.17;4.17;;;;;;;13.25;nan;96384.28;5012698;28;20211;-56
2022/09/16 10:08:26;;;;;;;4.43;4.00;;;;;;;13.16;nan;96393.56;5011562;28;20356;-55
2022/09/16 10:10:56;;;;;;;4.13;3.93;;;;;;;13.37;nan;96386.19;4967183;28;20432;-54
2022/09/16 10:13:25;;;;;;;5.00;4.60;;;;;;;13.51;nan;96382.41;5009743;28;20224;-55
2022/09/16 10:16:09;;;;;;;4.80;4.07;;;;;;;13.48;nan;96388.16;4998009;28;20216;-57
2022/09/16 10:18:38;;;;;;;3.80;3.53;;;;;;;13.32;nan;96390.31;4991176;28;20224;-53
2022/09/16 10:21:10;;;;;;;3.70;3.40;;;;;;;13.17;nan;96387.22;5009685;28;20514;-52
2022/09/16 10:23:38;;;;;;;5.23;3.87;;;;;;;13.18;nan;96387.00;5010057;28;20533;-55
2022/09/16 10:26:18;;;;;;;4.90;3.43;;;;;;;13.42;nan;96384.53;4966591;28;20564;-53
2022/09/16 10:28:58;;;;;;;3.97;3.50;;;;;;;13.32;nan;96376.22;5008574;28;20238;-54
2022/09/16 10:31:30;;;;;;;4.30;3.90;;;;;;;13.37;nan;96378.22;4977488;28;20789;-54
2022/09/16 10:34:01;;;;;;;3.43;3.20;;;;;;;13.34;nan;96371.50;4992899;28;20239;-53
2022/09/16 10:36:33;;;;;;;3.97;3.60;;;;;;;13.12;nan;96387.88;5010064;28;20212;-53
2022/09/16 10:39:03;;;;;;;4.80;3.47;;;;;;;13.20;nan;96383.28;4995718;28;20209;-56
2022/09/16 10:41:34;;;;;;;3.57;3.30;;;;;;;13.05;nan;96384.47;4962877;28;20223;-50
2022/09/16 10:44:15;;;;;;;5.80;3.50;;;;;;;13.15;nan;96387.44;5008799;28;20219;-58
2022/09/16 10:46:53;;;;;;;3.17;2.97;;;;;;;13.18;nan;96383.53;4996969;28;20220;-55
2022/09/16 10:49:25;;;;;;;3.73;3.00;;;;;;;13.15;nan;96386.63;4991488;28;20215;-56
2022/09/16 10:51:54;;;;;;;3.13;2.93;;;;;;;13.22;nan;96383.88;4993106;28;20208;-50
2022/09/16 10:54:27;;;;;;;4.00;3.07;;;;;;;13.16;nan;96383.75;5013992;28;20247;-55
2022/09/16 10:56:55;;;;;;;3.33;3.03;;;;;;;13.07;nan;96384.22;4962339;28;20215;-57
2022/09/16 10:59:24;;;;;;;4.33;3.13;;;;;;;13.25;nan;96384.28;5007263;28;20200;-56
2022/09/16 11:02:02;;;;;;;2.87;2.67;;;;;;;13.31;nan;96385.25;4996810;28;20223;-53
2022/09/16 11:04:41;;;;;;;3.53;3.23;;;;;;;13.40;nan;96391.06;5014000;28;20614;-59
2022/09/16 11:07:17;;;;;;;3.33;3.03;;;;;;;13.50;nan;96390.59;5001196;28;20208;-57
2022/09/16 11:09:52;;;;;;;4.27;2.97;;;;;;;13.36;nan;96390.72;4993278;28;20727;-54
2022/09/16 11:12:39;;;;;;;3.77;3.07;;;;;;;13.36;nan;96387.22;4962312;28;20215;-57
2022/09/16 11:15:16;;;;;;;2.63;2.43;;;;;;;13.15;nan;96387.44;4967553;28;20227;-51
2022/09/16 11:17:56;;;;;;;2.97;2.77;;;;;;;13.11;nan;96388.91;5009703;28;20623;-57
2022/09/16 11:20:46;;;;;;;3.07;2.73;;;;;;;13.30;nan;96392.41;5009220;28;20215;-56
2022/09/16 11:23:27;;;;;;;7.27;3.03;;;;;;;13.46;nan;96392.91;4988039;28;20225;-53
2022/09/16 11:25:59;;;;;;;3.10;2.57;;;;;;;13.62;nan;96396.78;5013527;28;20208;-53
2022/09/16 11:29:02;;;;;;;3.03;2.83;;;;;;;13.99;nan;96382.63;5007671;28;20205;-54
2022/09/16 11:31:39;;;;;;;3.60;2.53;;;;;;;14.09;nan;96376.75;4952976;28;20228;-51
2022/09/16 11:34:18;;;;;;;3.77;2.37;;;;;;;14.02;nan;96380.34;4987853;28;20240;-55
2022/09/16 11:36:56;;;;;;;3.43;2.40;;;;;;;13.61;nan;96381.84;5011709;28;20211;-54
2022/09/16 11:39:35;;;;;;;13.40;3.40;;;;;;;13.54;nan;96376.63;4954038;28;20236;-54
2022/09/16 11:42:11;;;;;;;3.70;2.77;;;;;;;13.50;nan;96374.63;5009668;28;20211;-56
2022/09/16 11:44:45;;;;;;;3.50;2.53;;;;;;;13.40;nan;96369.78;4973359;28;20216;-56
2022/09/16 11:47:36;;;;;;;2.43;2.27;;;;;;;13.57;nan;96375.34;4968431;28;20225;-55
2022/09/16 11:50:18;;;;;;;3.53;2.93;;;;;;;13.49;nan;96384.47;5009441;28;20965;-54
2022/09/16 11:53:09;;;;;;;4.03;2.80;;;;;;;13.48;nan;96387.34;5006202;28;21152;-59
2022/09/16 11:55:48;;;;;;;2.70;2.47;;;;;;;13.04;nan;96374.88;4987029;28;20260;-59
2022/09/16 11:58:25;;;;;;;3.90;2.57;;;;;;;13.16;nan;96372.31;5013030;28;20569;-53
2022/09/16 12:00:57;;;;;;;2.50;2.30;;;;;;;13.12;nan;96371.91;4969447;28;20214;-59
2022/09/16 12:03:31;;;;;;;9.33;2.73;;;;;;;13.10;nan;96368.66;4962082;28;20232;-54
2022/09/16 12:06:05;;;;;;;2.37;2.27;;;;;;;13.21;nan;96367.13;5011743;28;20212;-60
2022/09/16 12:08:43;;;;;;;3.27;2.50;;;;;;;13.52;nan;96368.06;5005676;28;20687;-55